createdAt,value
2022-11-17T05:00:34.382Z,99700.36
2022-11-17T05:03:01.999Z,99696.52
2022-11-17T05:05:30.151Z,99697.53
2022-11-17T05:07:58.186Z,99699.95
2022-11-17T05:10:46.829Z,99699.64
2022-11-17T05:13:22.859Z,99703.91
2022-11-17T05:16:09.623Z,99703.77
2022-11-17T05:18:37.516Z,99701.55
2022-11-17T05:21:07.721Z,99696.23
2022-11-17T05:23:54.825Z,99695.31
2022-11-17T05:26:26.440Z,99697.08
2022-11-17T05:28:56.731Z,99697.15
2022-11-17T05:31:25.935Z,99698.61
2022-11-17T05:33:54.682Z,99699.02
2022-11-17T05:36:24.442Z,99702.73
2022-11-17T05:38:53.341Z,99702.96
2022-11-17T05:41:23.093Z,99701.08
2022-11-17T05:43:51.682Z,99695.87
2022-11-17T05:46:21.091Z,99688.31
2022-11-17T05:48:53.481Z,99692.48
2022-11-17T05:51:26.381Z,99693.83
2022-11-17T05:53:53.747Z,99692.98
2022-11-17T05:56:36.534Z,99697.92
2022-11-17T05:59:07.705Z,99700.48
2022-11-17T06:01:39.350Z,99700.98
2022-11-17T06:04:08.925Z,99703.14
2022-11-17T06:06:38.250Z,99699.86
2022-11-17T06:09:06.338Z,99700.04
2022-11-17T06:11:34.586Z,99696.99
2022-11-17T06:14:01.921Z,99692.61
2022-11-17T06:16:33.692Z,99694.14
2022-11-17T06:19:06.964Z,99699.31
2022-11-17T06:22:04.549Z,99705.41
2022-11-17T06:24:25.036Z,99708.65
2022-11-17T06:26:52.684Z,99708.56
2022-11-17T06:29:20.488Z,99708.44
2022-11-17T06:31:48.323Z,99709.02
2022-11-17T06:34:15.936Z,99706.15
2022-11-17T06:36:43.175Z,99709.54
2022-11-17T06:39:11.005Z,99705.16
2022-11-17T06:41:40.259Z,99708.21
2022-11-17T06:44:08.093Z,99710.03
2022-11-17T06:46:38.354Z,99714.75
2022-11-17T06:49:09.445Z,99715.98
2022-11-17T06:51:38.897Z,99711.52
2022-11-17T06:54:12.606Z,99713.15
2022-11-17T06:56:40.841Z,99713.04
2022-11-17T06:59:08.931Z,99714.59
2022-11-17T07:01:38.667Z,99712.34
2022-11-17T07:04:07.098Z,99709.23
2022-11-17T07:06:37.469Z,99719.32
2022-11-17T07:09:06.015Z,99716.39
2022-11-17T07:11:36.660Z,99714.86
2022-11-17T07:14:04.370Z,99719.91
2022-11-17T07:16:32.857Z,99719.62
2022-11-17T07:19:03.964Z,99711.91
2022-11-17T07:21:31.440Z,99716.05
2022-11-17T07:23:59.254Z,99720.27
2022-11-17T07:26:26.990Z,99722.37
2022-11-17T07:28:54.374Z,99721.58
2022-11-17T07:31:22.105Z,99722.20
2022-11-17T07:33:50.821Z,99724.02
2022-11-17T07:36:18.785Z,99724.45
2022-11-17T07:38:46.558Z,99726.80
2022-11-17T07:41:15.736Z,99727.69
2022-11-17T07:43:43.581Z,99721.30
2022-11-17T07:46:13.730Z,99719.33
2022-11-17T07:48:43.761Z,99714.55
2022-11-17T07:51:14.572Z,99712.84
2022-11-17T07:53:42.280Z,99714.48
2022-11-17T07:56:12.652Z,99712.25
2022-11-17T07:58:40.930Z,99719.31
2022-11-17T08:01:11.282Z,99713.52
2022-11-17T08:03:39.288Z,99715.10
2022-11-17T08:06:09.604Z,99713.18
2022-11-17T08:08:38.808Z,99715.52
2022-11-17T08:11:11.935Z,99713.76
2022-11-17T08:13:42.725Z,99713.77
2022-11-17T08:16:11.363Z,99713.88
2022-11-17T08:18:39.924Z,99710.13
2022-11-17T08:21:10.469Z,99711.73
2022-11-17T08:23:38.882Z,99713.97
2022-11-17T08:26:08.623Z,99719.14
2022-11-17T08:28:37.428Z,99721.59
2022-11-17T08:31:07.462Z,99720.80
2022-11-17T08:33:35.374Z,99719.31
2022-11-17T08:36:07.765Z,99722.55
2022-11-17T08:38:36.573Z,99724.35
2022-11-17T08:41:08.665Z,99723.26
2022-11-17T08:43:36.651Z,99725.42
2022-11-17T08:46:04.847Z,99724.30
2022-11-17T08:48:33.791Z,99720.05
2022-11-17T08:51:06.616Z,99721.48
2022-11-17T08:53:35.218Z,99719.81
2022-11-17T08:56:08.047Z,99720.64
2022-11-17T08:58:43.715Z,99721.68
2022-11-17T09:01:13.489Z,99723.71
2022-11-17T09:03:44.654Z,99717.45
2022-11-17T09:06:13.792Z,99718.25
2022-11-17T09:08:46.659Z,99721.29
2022-11-17T09:11:16.938Z,99720.27
2022-11-17T09:13:46.027Z,99717.95
2022-11-17T09:16:15.338Z,99715.23
2022-11-17T09:18:44.391Z,99712.96
2022-11-17T09:21:16.084Z,99715.10
2022-11-17T09:23:44.557Z,99712.42
2022-11-17T09:26:14.567Z,99711.17
2022-11-17T09:28:43.311Z,99708.38
2022-11-17T09:31:16.971Z,99706.17
2022-11-17T09:33:45.155Z,99698.63
2022-11-17T09:36:14.972Z,99695.94
2022-11-17T09:38:43.323Z,99700.29
2022-11-17T09:41:26.964Z,99702.39
2022-11-17T09:44:21.347Z,99702.44
2022-11-17T09:46:55.546Z,99703.56
2022-11-17T09:50:02.895Z,99700.44
2022-11-17T09:53:06.556Z,99694.52
2022-11-17T09:55:39.482Z,99696.56
2022-11-17T09:58:47.619Z,99695.52
2022-11-17T10:01:21.927Z,99697.23
2022-11-17T10:03:54.121Z,99693.52
2022-11-17T10:06:27.899Z,99694.24
2022-11-17T10:09:01.409Z,99692.89
2022-11-17T10:11:36.693Z,99687.77
2022-11-17T10:14:11.234Z,99688.20
2022-11-17T10:16:41.573Z,99682.52
2022-11-17T10:19:39.591Z,99681.91
2022-11-17T10:22:07.691Z,99678.28
2022-11-17T10:24:34.905Z,99672.09
2022-11-17T10:27:07.534Z,99669.10
2022-11-17T10:29:35.001Z,99665.54
2022-11-17T10:32:08.590Z,99659.81
2022-11-17T10:34:41.347Z,99660.63
2022-11-17T10:37:18.647Z,99661.16
2022-11-17T10:39:46.391Z,99659.90
2022-11-17T10:42:22.313Z,99661.70
2022-11-17T10:44:53.209Z,99661.08
2022-11-17T10:47:40.603Z,99662.32
2022-11-17T10:50:28.351Z,99667.55
2022-11-17T10:53:26.886Z,99668.31
2022-11-17T10:55:58.311Z,99663.52
2022-11-17T10:58:29.459Z,99668.27
2022-11-17T11:01:03.142Z,99665.64
2022-11-17T11:03:36.094Z,99667.90
2022-11-17T11:06:23.264Z,99668.41
2022-11-17T11:09:00.421Z,99666.47
2022-11-17T11:11:45.745Z,99660.52
2022-11-17T11:14:19.047Z,99660.81
2022-11-17T11:16:48.706Z,99661.82
2022-11-17T11:19:18.867Z,99664.30
2022-11-17T11:22:09.202Z,99665.34
2022-11-17T11:24:45.621Z,99664.15
2022-11-17T11:27:42.184Z,99657.63
2022-11-17T11:30:16.831Z,99651.54
2022-11-17T11:32:43.939Z,99648.46
2022-11-17T11:35:46.160Z,99643.91
2022-11-17T11:38:33.563Z,99639.80
2022-11-17T11:41:27.100Z,99634.34
2022-11-17T11:44:21.593Z,99631.00
2022-11-17T11:47:20.428Z,99632.18
2022-11-17T11:50:16.389Z,99627.83
2022-11-17T11:53:24.340Z,99624.91
2022-11-17T11:56:10.146Z,99623.18
2022-11-17T11:58:44.974Z,99615.77
2022-11-17T12:01:14.147Z,99611.82
2022-11-17T12:03:44.942Z,99608.83
2022-11-17T12:06:54.676Z,99610.13
2022-11-17T12:09:44.662Z,99606.02
2022-11-17T12:12:18.763Z,99605.41
2022-11-17T12:15:22.077Z,99601.73
2022-11-17T12:18:16.696Z,99597.59
2022-11-17T12:21:05.274Z,99593.48
2022-11-17T12:23:54.592Z,99594.59
2022-11-17T12:26:28.014Z,99597.14
2022-11-17T12:29:21.055Z,99592.88
2022-11-17T12:31:50.403Z,99587.55
2022-11-17T12:34:31.027Z,99586.90
2022-11-17T12:37:08.106Z,99585.89
2022-11-17T12:39:58.713Z,99587.40
2022-11-17T12:42:28.167Z,99588.21
2022-11-17T12:45:04.482Z,99585.95
2022-11-17T12:47:34.180Z,99588.10
2022-11-17T12:50:20.595Z,99585.73
2022-11-17T12:53:15.581Z,99587.75
2022-11-17T12:56:08.587Z,99588.33
2022-11-17T12:58:43.467Z,99586.20
2022-11-17T13:01:49.297Z,99585.45
2022-11-17T13:04:43.815Z,99583.70
2022-11-17T13:07:24.208Z,99582.29
2022-11-17T13:09:54.335Z,99574.62
2022-11-17T13:12:24.872Z,99576.84
2022-11-17T13:15:05.331Z,99573.87
2022-11-17T13:17:44.524Z,99575.21
2022-11-17T13:20:24.122Z,99573.44
2022-11-17T13:23:14.881Z,99577.23
2022-11-17T13:25:42.944Z,99580.42
2022-11-17T13:28:32.080Z,99580.54
2022-11-17T13:31:02.222Z,99580.13
2022-11-17T13:33:34.330Z,99578.77
2022-11-17T13:36:20.171Z,99572.66
2022-11-17T13:38:50.102Z,99565.95
2022-11-17T13:41:20.865Z,99567.15
2022-11-17T13:43:51.183Z,99564.57
2022-11-17T13:46:20.016Z,99562.27
2022-11-17T13:48:50.642Z,99561.23
2022-11-17T13:51:18.664Z,99558.48
2022-11-17T13:54:13.171Z,99561.55
2022-11-17T13:56:46.992Z,99561.00
2022-11-17T13:59:24.516Z,99559.40
2022-11-17T14:02:22.543Z,99566.08
2022-11-17T14:05:15.009Z,99561.83
2022-11-17T14:07:48.684Z,99560.46
2022-11-17T14:10:25.456Z,99561.27
2022-11-17T14:13:02.163Z,99562.33
2022-11-17T14:15:37.346Z,99567.54
2022-11-17T14:18:37.937Z,99567.48
2022-11-17T14:21:11.291Z,99571.69
2022-11-17T14:23:40.445Z,99571.55
2022-11-17T14:26:21.892Z,99567.47
2022-11-17T14:28:52.141Z,99559.35
2022-11-17T14:31:21.136Z,99560.33
2022-11-17T14:33:50.659Z,99561.59
2022-11-17T14:36:19.222Z,99564.40
2022-11-17T14:38:48.128Z,99558.17
2022-11-17T14:41:17.900Z,99559.55
2022-11-17T14:43:45.263Z,99557.29
2022-11-17T14:46:25.163Z,99559.01
2022-11-17T14:48:53.823Z,99559.45
2022-11-17T14:51:21.764Z,99560.02
2022-11-17T14:53:48.996Z,99558.51
2022-11-17T14:56:18.677Z,99558.99
2022-11-17T14:58:47.923Z,99561.86
2022-11-17T15:01:26.142Z,99559.65
2022-11-17T15:03:55.533Z,99556.04
2022-11-17T15:06:23.270Z,99554.84
2022-11-17T15:09:08.504Z,99552.64
2022-11-17T15:11:39.366Z,99555.34
2022-11-17T15:14:08.136Z,99559.75
2022-11-17T15:16:36.283Z,99562.05
2022-11-17T15:19:03.927Z,99560.31
2022-11-17T15:21:31.205Z,99565.62
2022-11-17T15:23:58.781Z,99572.15
2022-11-17T15:26:26.752Z,99580.25
2022-11-17T15:28:57.969Z,99583.10
2022-11-17T15:31:27.068Z,99579.39
2022-11-17T15:33:54.255Z,99577.33
2022-11-17T15:36:25.725Z,99579.04
2022-11-17T15:38:53.836Z,99583.48
2022-11-17T15:41:21.782Z,99582.70
2022-11-17T15:43:49.364Z,99581.27
2022-11-17T15:46:18.846Z,99581.71
2022-11-17T15:48:49.538Z,99581.35
2022-11-17T15:51:21.791Z,99581.29
2022-11-17T15:53:51.359Z,99577.26
2022-11-17T15:56:21.795Z,99573.03
2022-11-17T15:58:55.311Z,99572.19
2022-11-17T16:01:37.933Z,99572.98
2022-11-17T16:04:11.577Z,99570.98
2022-11-17T16:06:41.575Z,99567.00
2022-11-17T16:09:10.268Z,99566.11
2022-11-17T16:11:39.025Z,99565.55
2022-11-17T16:14:08.676Z,99559.70
2022-11-17T16:16:39.455Z,99560.33
2022-11-17T16:19:08.434Z,99559.03
2022-11-17T16:21:36.211Z,99559.62
2022-11-17T16:24:03.557Z,99565.58
2022-11-17T16:26:31.831Z,99566.54
2022-11-17T16:29:02.322Z,99564.52
2022-11-17T16:31:32.741Z,99562.55
2022-11-17T16:34:12.663Z,99560.06
2022-11-17T16:36:42.400Z,99555.41
2022-11-17T16:39:13.452Z,99551.96
2022-11-17T16:41:43.769Z,99554.11
2022-11-17T16:44:17.331Z,99556.39
2022-11-17T16:46:50.812Z,99554.90
2022-11-17T16:49:20.718Z,99556.98
2022-11-17T16:51:50.730Z,99555.83
2022-11-17T16:54:20.043Z,99559.58
2022-11-17T16:56:47.981Z,99555.73
2022-11-17T16:59:16.525Z,99564.08
2022-11-17T17:01:44.778Z,99566.16
2022-11-17T17:04:12.870Z,99569.27
2022-11-17T17:06:42.642Z,99567.73
2022-11-17T17:09:12.820Z,99570.45
2022-11-17T17:11:41.920Z,99566.18
2022-11-17T17:14:14.384Z,99569.25
2022-11-17T17:16:43.335Z,99563.50
2022-11-17T17:19:13.402Z,99557.98
2022-11-17T17:21:42.517Z,99559.25
2022-11-17T17:24:11.258Z,99554.23
2022-11-17T17:26:40.428Z,99551.47
2022-11-17T17:29:08.463Z,99550.82
2022-11-17T17:31:38.841Z,99543.02
2022-11-17T17:34:07.838Z,99537.36
2022-11-17T17:36:39.078Z,99531.30
2022-11-17T17:39:07.453Z,99528.17
2022-11-17T17:41:39.807Z,99524.77
2022-11-17T17:44:08.831Z,99531.03
2022-11-17T17:46:38.765Z,99529.89
2022-11-17T17:49:07.373Z,99518.50
2022-11-17T17:51:40.702Z,99521.70
2022-11-17T17:54:13.576Z,99523.73
2022-11-17T17:56:41.365Z,99528.30
2022-11-17T17:59:08.561Z,99526.70
2022-11-17T18:01:37.792Z,99526.69
2022-11-17T18:04:05.487Z,99521.81
2022-11-17T18:06:40.834Z,99522.31
2022-11-17T18:09:10.620Z,99523.23
2022-11-17T18:11:46.169Z,99524.39
2022-11-17T18:14:14.129Z,99525.33
2022-11-17T18:16:41.636Z,99523.18
2022-11-17T18:19:13.420Z,99522.08
2022-11-17T18:21:40.993Z,99518.20
2022-11-17T18:24:08.589Z,99515.91
2022-11-17T18:26:36.414Z,99515.98
2022-11-17T18:29:16.357Z,99516.46
2022-11-17T18:31:46.913Z,99506.51
2022-11-17T18:34:21.360Z,99508.24
2022-11-17T18:36:51.282Z,99504.37
2022-11-17T18:39:19.438Z,99500.17
2022-11-17T18:41:47.782Z,99502.38
2022-11-17T18:45:08.803Z,99498.27
2022-11-17T18:47:36.551Z,99498.71
2022-11-17T18:50:05.021Z,99502.40
2022-11-17T18:52:32.305Z,99503.52
2022-11-17T18:54:59.876Z,99501.86
2022-11-17T18:57:27.310Z,99495.56
2022-11-17T18:59:54.692Z,99492.21
2022-11-17T19:02:22.354Z,99491.83
2022-11-17T19:04:49.836Z,99491.17
2022-11-17T19:07:17.496Z,99489.66
2022-11-17T19:09:44.719Z,99491.41
2022-11-17T19:12:12.808Z,99493.66
2022-11-17T19:14:40.043Z,99496.94
2022-11-17T19:17:07.313Z,99493.48
2022-11-17T19:19:34.589Z,99493.73
2022-11-17T19:22:01.948Z,99490.70
2022-11-17T19:24:29.251Z,99483.79
2022-11-17T19:26:56.489Z,99481.43
2022-11-17T19:29:23.814Z,99478.83
2022-11-17T19:31:52.980Z,99484.79
2022-11-17T19:34:20.271Z,99484.76
2022-11-17T19:36:47.719Z,99488.91
2022-11-17T19:39:15.560Z,99483.81
2022-11-17T19:41:43.838Z,99481.92
2022-11-17T19:44:11.558Z,99488.36
2022-11-17T19:46:40.445Z,99493.05
2022-11-17T19:49:08.982Z,99490.91
2022-11-17T19:51:37.320Z,99495.14
2022-11-17T19:54:09.345Z,99493.69
2022-11-17T19:56:38.617Z,99497.55
2022-11-17T19:59:09.722Z,99495.83
2022-11-17T20:01:40.236Z,99496.63
2022-11-17T20:04:08.262Z,99498.10
2022-11-17T20:06:39.010Z,99494.61
2022-11-17T20:09:09.296Z,99488.66
2022-11-17T20:11:37.176Z,99487.46
2022-11-17T20:14:04.898Z,99488.13
2022-11-17T20:16:32.744Z,99483.10
2022-11-17T20:19:02.253Z,99480.39
2022-11-17T20:21:31.593Z,99484.05
2022-11-17T20:23:59.854Z,99484.63
2022-11-17T20:26:32.240Z,99480.40
2022-11-17T20:29:00.959Z,99479.39
2022-11-17T20:31:31.714Z,99475.42
2022-11-17T20:34:00.987Z,99472.58
2022-11-17T20:36:30.087Z,99476.48
2022-11-17T20:39:00.570Z,99474.34
2022-11-17T20:41:29.680Z,99474.38
2022-11-17T20:43:59.324Z,99468.55
2022-11-17T20:46:27.249Z,99460.68
2022-11-17T20:48:55.025Z,99453.76
2022-11-17T20:51:25.438Z,99446.54
2022-11-17T20:53:53.096Z,99445.82
2022-11-17T20:56:21.665Z,99448.09
2022-11-17T20:58:49.575Z,99449.27
2022-11-17T21:01:20.094Z,99444.76
2022-11-17T21:03:47.872Z,99444.70
2022-11-17T21:06:16.217Z,99440.27
2022-11-17T21:08:45.492Z,99443.27
2022-11-17T21:11:39.825Z,99444.65
2022-11-17T21:14:09.368Z,99447.77
2022-11-17T21:16:39.164Z,99447.26
2022-11-17T21:19:06.932Z,99442.59
2022-11-17T21:21:34.414Z,99446.23
2022-11-17T21:24:02.549Z,99446.48
2022-11-17T21:26:32.511Z,99444.56
2022-11-17T21:29:06.007Z,99442.10
2022-11-17T21:31:34.389Z,99443.80
2022-11-17T21:34:04.683Z,99447.88
2022-11-17T21:36:33.935Z,99446.02
2022-11-17T21:39:02.192Z,99439.91
2022-11-17T21:41:34.944Z,99437.46
2022-11-17T21:44:03.420Z,99442.20
2022-11-17T21:46:34.204Z,99437.30
2022-11-17T21:49:02.025Z,99434.13
2022-11-17T21:51:35.340Z,99435.38
2022-11-17T21:54:05.036Z,99434.04
2022-11-17T21:56:33.138Z,99423.01
2022-11-17T21:59:08.071Z,99422.80
2022-11-17T22:01:36.426Z,99418.75
2022-11-17T22:04:03.917Z,99422.30
2022-11-17T22:06:31.589Z,99422.38
2022-11-17T22:08:59.983Z,99423.44
2022-11-17T22:11:36.547Z,99427.06
2022-11-17T22:14:06.707Z,99423.61
2022-11-17T22:16:36.332Z,99420.80
2022-11-17T22:19:04.469Z,99420.33
2022-11-17T22:21:33.526Z,99418.70
2022-11-17T22:24:01.241Z,99417.48
2022-11-17T22:26:29.066Z,99417.80
2022-11-17T22:28:56.448Z,99417.69
2022-11-17T22:31:24.183Z,99415.14
2022-11-17T22:33:52.434Z,99418.54
2022-11-17T22:36:19.940Z,99419.61
2022-11-17T22:38:51.685Z,99424.23
2022-11-17T22:41:21.054Z,99422.65
2022-11-17T22:43:58.449Z,99422.59
2022-11-17T22:46:27.442Z,99423.05
2022-11-17T22:48:55.576Z,99418.45
2022-11-17T22:51:41.740Z,99421.63
2022-11-17T22:54:09.011Z,99420.98
2022-11-17T22:56:37.178Z,99422.59
2022-11-17T22:59:04.389Z,99426.95
2022-11-17T23:01:32.138Z,99420.75
2022-11-17T23:04:00.291Z,99423.66
2022-11-17T23:06:28.084Z,99418.38
2022-11-17T23:08:57.565Z,99418.13
2022-11-17T23:11:41.893Z,99417.42
2022-11-17T23:14:13.114Z,99415.50
2022-11-17T23:16:40.954Z,99408.89
2022-11-17T23:19:12.786Z,99409.60
2022-11-17T23:21:40.805Z,99409.90
2022-11-17T23:24:13.164Z,99412.18
2022-11-17T23:26:42.344Z,99407.63
2022-11-17T23:29:10.351Z,99408.02
2022-11-17T23:31:37.859Z,99405.67
2022-11-17T23:34:05.832Z,99402.33
2022-11-17T23:36:33.358Z,99401.90
2022-11-17T23:39:00.767Z,99396.73
2022-11-17T23:41:29.110Z,99393.30
2022-11-17T23:43:56.628Z,99395.20
2022-11-17T23:46:26.798Z,99395.56
2022-11-17T23:48:56.518Z,99394.15
2022-11-17T23:51:26.447Z,99394.45
2022-11-17T23:53:54.383Z,99398.30
2022-11-17T23:56:22.932Z,99396.05
2022-11-17T23:58:52.124Z,99398.30
